Time;durP1;ratioP1;P1;durP2;ratioP2;P2;SDS_P1;SDS_P2;PMS_P1;PMS_P2;Temp;Humidity;BMP_temperature;BMP_pressure;BME280_temperature;BME280_humidity;BME280_pressure;Samples;Min_cycle;Max_cycle;Signal;HPM_P1;HPM_P2
2023/04/09 00:02:47;;;;;;;19.80;11.53;;;;;6.50;96926.00;;;;8297553;28;20280;-70
2023/04/09 00:06:51;;;;;;;17.40;10.27;;;;;6.50;96923.00;;;;8279217;28;20720;-73
2023/04/09 00:10:56;;;;;;;21.83;11.17;;;;;6.40;96928.00;;;;8285484;28;20233;-70
2023/04/09 00:15:01;;;;;;;22.50;11.83;;;;;6.40;96920.00;;;;8284402;28;20210;-72
2023/04/09 00:19:07;;;;;;;22.70;11.80;;;;;6.40;96929.00;;;;8268987;28;20225;-72
2023/04/09 00:23:11;;;;;;;21.60;12.03;;;;;6.30;96930.00;;;;8280818;28;20198;-71
2023/04/09 00:27:16;;;;;;;24.10;12.03;;;;;6.30;96925.00;;;;8283694;28;20267;-72
2023/04/09 00:31:21;;;;;;;21.27;12.03;;;;;6.30;96925.00;;;;8285205;28;20856;-69
2023/04/09 00:35:25;;;;;;;23.83;12.20;;;;;6.30;96930.00;;;;8275827;28;20202;-72
2023/04/09 00:39:32;;;;;;;20.27;11.00;;;;;6.30;96930.00;;;;8273406;28;20222;-73
2023/04/09 00:43:36;;;;;;;22.07;12.13;;;;;6.30;96933.00;;;;8274720;28;20240;-71
2023/04/09 00:47:45;;;;;;;24.63;12.73;;;;;6.30;96929.00;;;;8284614;28;20204;-69
2023/04/09 00:51:48;;;;;;;22.57;12.73;;;;;6.30;96937.00;;;;8283631;28;20205;-73
2023/04/09 00:55:55;;;;;;;21.60;11.60;;;;;6.30;96933.00;;;;8278171;28;20620;-71
2023/04/09 01:00:03;;;;;;;23.97;12.87;;;;;6.30;96936.00;;;;8272962;28;20208;-70
2023/04/09 01:04:08;;;;;;;23.33;12.27;;;;;6.30;96932.00;;;;8281661;28;20608;-70
2023/04/09 01:08:19;;;;;;;27.10;13.13;;;;;6.30;96930.00;;;;8279362;28;20230;-71
2023/04/09 01:12:32;;;;;;;22.60;12.20;;;;;6.20;96934.00;;;;8272453;28;20676;-71
2023/04/09 01:16:37;;;;;;;20.50;11.30;;;;;6.20;96926.00;;;;8278442;28;20234;-70
2023/04/09 01:20:48;;;;;;;24.27;12.10;;;;;6.20;96903.00;;;;8280993;28;20210;-69
2023/04/09 01:25:05;;;;;;;23.97;12.07;;;;;6.20;96904.00;;;;8276853;28;20230;-69
2023/04/09 01:29:10;;;;;;;18.93;11.53;;;;;6.10;96905.00;;;;8279114;28;20318;-71
2023/04/09 01:33:16;;;;;;;23.57;12.33;;;;;5.90;96909.00;;;;8274679;28;20202;-71
2023/04/09 01:37:20;;;;;;;24.00;11.40;;;;;5.80;96905.00;;;;8272826;28;20191;-71
2023/04/09 01:41:24;;;;;;;22.30;11.43;;;;;5.60;96906.00;;;;8275337;28;20296;-70
2023/04/09 01:45:29;;;;;;;22.77;11.23;;;;;5.50;96909.00;;;;8275509;28;20233;-69
2023/04/09 01:49:32;;;;;;;22.73;11.90;;;;;5.30;96911.00;;;;8277901;28;20209;-70
2023/04/09 01:53:36;;;;;;;21.90;11.40;;;;;5.20;96904.00;;;;8278297;28;20233;-70
2023/04/09 01:57:39;;;;;;;24.37;11.73;;;;;5.10;96906.00;;;;8274726;28;20203;-72
2023/04/09 02:01:47;;;;;;;20.80;11.00;;;;;4.90;96916.00;;;;8274590;28;20218;-69
2023/04/09 02:05:57;;;;;;;23.67;11.50;;;;;4.80;96908.00;;;;8277051;28;20240;-71
2023/04/09 02:10:05;;;;;;;21.70;10.93;;;;;4.70;96916.00;;;;8284103;28;20301;-70
2023/04/09 02:14:11;;;;;;;21.53;10.60;;;;;4.50;96920.00;;;;8271415;28;20202;-70
2023/04/09 02:18:46;;;;;;;17.03;9.67;;;;;4.10;96923.00;;;;8278633;28;20273;-72
2023/04/09 02:22:50;;;;;;;27.37;11.63;;;;;3.90;96925.00;;;;8275359;28;21069;-71
2023/04/09 02:26:55;;;;;;;21.87;11.23;;;;;3.80;96928.00;;;;8269635;28;20791;-71
2023/04/09 02:31:12;;;;;;;25.57;11.37;;;;;3.80;96926.00;;;;8273764;28;20560;-69
2023/04/09 02:35:16;;;;;;;23.57;12.17;;;;;3.70;96931.00;;;;8267112;28;20882;-70
2023/04/09 02:39:20;;;;;;;25.23;12.37;;;;;3.70;96936.00;;;;8268594;28;20784;-70
2023/04/09 02:43:23;;;;;;;25.40;13.57;;;;;3.70;96933.00;;;;8267308;28;20208;-69
2023/04/09 02:47:30;;;;;;;25.03;11.97;;;;;3.70;96933.00;;;;8272113;28;20316;-71
2023/04/09 02:51:36;;;;;;;26.27;12.83;;;;;3.70;96932.00;;;;8266526;28;20251;-69
2023/04/09 02:55:41;;;;;;;22.97;12.13;;;;;3.70;96935.00;;;;8270926;28;20812;-70
2023/04/09 02:59:44;;;;;;;21.53;11.10;;;;;3.60;96943.00;;;;8272785;28;20258;-70
2023/04/09 03:03:50;;;;;;;24.90;10.70;;;;;3.50;96940.00;;;;8275120;22;20267;-69
2023/04/09 03:07:56;;;;;;;25.40;11.87;;;;;3.30;96925.00;;;;8251231;28;20311;-71
2023/04/09 03:11:58;;;;;;;25.37;11.90;;;;;3.20;96931.00;;;;8255976;28;20775;-71
2023/04/09 03:16:02;;;;;;;28.57;12.67;;;;;3.10;96928.00;;;;8253961;28;20238;-69
2023/04/09 03:20:11;;;;;;;29.20;13.33;;;;;3.10;96925.00;;;;8246879;28;20685;-70
2023/04/09 03:24:18;;;;;;;24.77;12.13;;;;;3.20;96917.00;;;;8259343;28;20209;-71
2023/04/09 03:28:21;;;;;;;30.73;13.97;;;;;3.30;96917.00;;;;8252889;28;20212;-72
2023/04/09 03:32:26;;;;;;;27.83;13.30;;;;;3.30;96920.00;;;;8263365;28;20639;-70
2023/04/09 03:36:30;;;;;;;28.03;13.17;;;;;3.30;96917.00;;;;8264732;28;20213;-72
2023/04/09 03:40:35;;;;;;;32.97;14.50;;;;;3.30;96923.00;;;;8261225;28;20198;-72
2023/04/09 03:44:38;;;;;;;33.47;14.37;;;;;3.30;96925.00;;;;8257676;28;20210;-73
2023/04/09 03:48:44;;;;;;;35.57;15.27;;;;;3.30;96925.00;;;;8255343;28;20652;-72
2023/04/09 03:52:50;;;;;;;38.03;14.93;;;;;3.40;96919.00;;;;8259852;28;20241;-72
2023/04/09 03:56:55;;;;;;;34.17;14.77;;;;;3.40;96915.00;;;;8257558;28;20240;-70
2023/04/09 04:00:57;;;;;;;33.30;15.97;;;;;3.40;96920.00;;;;8255410;28;20224;-72
2023/04/09 04:05:03;;;;;;;36.93;16.53;;;;;3.40;96925.00;;;;8254723;28;20214;-73
2023/04/09 04:09:06;;;;;;;46.27;18.63;;;;;3.40;96921.00;;;;8258115;28;20212;-79
2023/04/09 04:13:10;;;;;;;49.77;19.27;;;;;3.40;96925.00;;;;8253659;28;20294;-70
2023/04/09 04:17:18;;;;;;;46.30;18.67;;;;;3.50;96930.00;;;;8258513;28;20200;-73
2023/04/09 04:21:22;;;;;;;44.87;18.83;;;;;3.50;96924.00;;;;8250863;28;20196;-73
2023/04/09 04:25:27;;;;;;;49.63;18.77;;;;;3.50;96925.00;;;;8252171;28;20226;-71
2023/04/09 04:29:38;;;;;;;42.57;19.57;;;;;3.50;96920.00;;;;8250861;28;20228;-74
2023/04/09 04:33:43;;;;;;;43.30;18.70;;;;;3.50;96933.00;;;;8245719;28;20219;-72
2023/04/09 04:37:49;;;;;;;52.07;19.50;;;;;3.60;96929.00;;;;8249786;28;20219;-71
2023/04/09 04:41:56;;;;;;;54.87;21.87;;;;;3.60;96926.00;;;;8249450;28;20622;-78
2023/04/09 04:46:00;;;;;;;49.27;20.27;;;;;3.70;96938.00;;;;8245516;28;20228;-72
2023/04/09 04:50:03;;;;;;;40.10;17.17;;;;;3.70;96944.00;;;;8251350;28;20208;-75
2023/04/09 04:54:07;;;;;;;60.97;23.03;;;;;3.80;96949.00;;;;8250187;28;20641;-77
2023/04/09 04:58:11;;;;;;;57.23;21.87;;;;;3.80;96953.00;;;;8236712;28;20616;-74
2023/04/09 05:02:21;;;;;;;54.33;22.90;;;;;3.90;96948.00;;;;8255244;28;20235;-71
2023/04/09 05:06:28;;;;;;;58.37;23.23;;;;;3.90;96946.00;;;;8250911;28;20255;-76
2023/04/09 05:10:31;;;;;;;55.00;21.40;;;;;4.00;96951.00;;;;8261690;28;20564;-79
2023/04/09 05:14:35;;;;;;;60.53;23.43;;;;;4.00;96947.00;;;;8250462;28;20212;-76
2023/04/09 05:18:39;;;;;;;62.50;24.17;;;;;4.00;96955.00;;;;8248979;28;20211;-82
2023/04/09 05:22:42;;;;;;;67.87;26.07;;;;;4.10;96965.00;;;;8250848;28;20205;-76
2023/04/09 05:26:48;;;;;;;58.53;23.43;;;;;4.10;96957.00;;;;8245793;28;20304;-75
2023/04/09 05:30:53;;;;;;;60.37;23.87;;;;;4.20;96941.00;;;;8252714;28;20208;-72
2023/04/09 05:34:57;;;;;;;60.93;24.63;;;;;4.30;96953.00;;;;8240628;28;20573;-74
2023/04/09 05:39:02;;;;;;;96.30;38.90;;;;;4.30;96956.00;;;;8247538;28;20294;-75
2023/04/09 05:43:06;;;;;;;53.33;22.83;;;;;4.40;96961.00;;;;8250675;28;20215;-77
2023/04/09 05:47:11;;;;;;;47.60;19.93;;;;;4.50;96957.00;;;;8251578;28;20256;-74
2023/04/09 05:51:18;;;;;;;51.37;20.73;;;;;4.60;96966.00;;;;8245965;28;21433;-77
2023/04/09 05:55:23;;;;;;;49.73;20.83;;;;;4.70;96956.00;;;;8237093;28;20236;-73
2023/04/09 05:59:28;;;;;;;52.30;20.87;;;;;4.70;96960.00;;;;8250588;28;20260;-77
2023/04/09 06:03:31;;;;;;;48.43;21.00;;;;;4.90;96962.00;;;;8247216;28;20237;-73
2023/04/09 06:07:36;;;;;;;50.93;22.93;;;;;5.00;96966.00;;;;8251692;28;20275;-77
2023/04/09 06:11:39;;;;;;;51.83;21.03;;;;;5.20;96963.00;;;;8246147;28;20685;-73
2023/04/09 06:15:47;;;;;;;58.57;24.83;;;;;5.30;96976.00;;;;8253504;28;20764;-74
2023/04/09 06:19:54;;;;;;;51.17;21.67;;;;;5.30;97000.00;;;;8248578;28;20258;-79
2023/04/09 06:24:01;;;;;;;61.50;25.87;;;;;5.40;96986.00;;;;8246545;28;20206;-72
2023/04/09 06:28:04;;;;;;;65.13;26.50;;;;;5.50;96986.00;;;;8252069;28;20236;-73
2023/04/09 06:32:08;;;;;;;60.87;25.07;;;;;5.60;96992.00;;;;8247963;28;20202;-74
2023/04/09 06:36:11;;;;;;;58.53;23.60;;;;;5.70;97004.00;;;;8250781;28;20210;-74
2023/04/09 06:40:22;;;;;;;54.40;23.67;;;;;5.80;97005.00;;;;8255512;28;20638;-71
2023/04/09 06:44:25;;;;;;;62.20;24.67;;;;;5.90;97003.00;;;;8246641;28;20842;-74
2023/04/09 06:48:33;;;;;;;54.87;24.83;;;;;6.10;97005.00;;;;8245834;28;20265;-70
2023/04/09 06:52:36;;;;;;;57.23;24.17;;;;;6.20;97013.00;;;;8258099;28;20233;-73
2023/04/09 06:56:41;;;;;;;59.27;24.00;;;;;6.30;97018.00;;;;8256918;28;20237;-71
2023/04/09 07:00:43;;;;;;;57.17;25.23;;;;;6.40;97015.00;;;;8250844;28;20217;-71
2023/04/09 07:04:48;;;;;;;54.97;25.63;;;;;6.50;97025.00;;;;8253226;28;20567;-72
2023/04/09 07:08:54;;;;;;;53.73;23.83;;;;;6.70;97022.00;;;;8248034;28;20348;-70
2023/04/09 07:12:58;;;;;;;48.83;22.50;;;;;6.90;97027.00;;;;8251694;28;20202;-71
2023/04/09 07:17:03;;;;;;;51.77;24.60;;;;;7.10;97029.00;;;;8245734;28;20995;-69
2023/04/09 07:21:08;;;;;;;56.03;26.50;;;;;7.80;97020.00;;;;8244816;28;20199;-71
2023/04/09 07:25:13;;;;;;;45.50;20.23;;;;;8.10;97028.00;;;;8246785;28;20301;-71
2023/04/09 07:29:19;;;;;;;49.70;24.60;;;;;8.00;97033.00;;;;8251833;28;20683;-70
2023/04/09 07:33:23;;;;;;;53.17;24.60;;;;;8.10;97034.00;;;;8254917;28;20249;-72
2023/04/09 07:37:28;;;;;;;62.47;30.47;;;;;8.30;97039.00;;;;8251347;28;20218;-70
2023/04/09 07:41:31;;;;;;;69.87;32.57;;;;;8.70;97042.00;;;;8249471;28;20203;-72
2023/04/09 07:45:35;;;;;;;64.67;31.10;;;;;9.30;97038.00;;;;8255364;28;20206;-70
2023/04/09 07:49:38;;;;;;;57.13;27.30;;;;;9.50;97035.00;;;;8249568;28;20566;-71
2023/04/09 07:53:41;;;;;;;50.30;25.13;;;;;9.90;97041.00;;;;8252171;28;20220;-72
2023/04/09 07:57:45;;;;;;;47.30;23.53;;;;;9.70;97034.00;;;;8252923;28;20186;-79
2023/04/09 08:01:49;;;;;;;49.43;23.90;;;;;9.70;97032.00;;;;8242492;28;20241;-71
2023/04/09 08:05:55;;;;;;;43.72;21.98;;;;;9.60;97042.00;;;;8246931;28;20581;-70
2023/04/09 08:09:58;;;;;;;42.93;21.77;;;;;9.70;97030.00;;;;8245824;28;20652;-68
2023/04/09 08:14:03;;;;;;;44.55;21.70;;;;;9.70;97041.00;;;;8257773;28;20947;-72
2023/04/09 08:18:08;;;;;;;42.93;21.27;;;;;10.00;97037.00;;;;8254163;28;20616;-74
2023/04/09 08:22:14;;;;;;;41.83;21.87;;;;;10.50;97041.00;;;;8256032;28;20249;-74
2023/04/09 08:26:17;;;;;;;43.08;22.30;;;;;10.50;97037.00;;;;8255089;28;20807;-72
2023/04/09 08:30:20;;;;;;;42.80;20.93;;;;;10.90;97039.00;;;;8254842;28;20241;-73
2023/04/09 08:34:24;;;;;;;38.38;20.42;;;;;11.20;97042.00;;;;8257811;28;20636;-72
2023/04/09 08:38:32;;;;;;;36.67;19.52;;;;;11.90;97031.00;;;;8253868;28;20202;-71
2023/04/09 08:42:44;;;;;;;33.38;19.00;;;;;12.80;97025.00;;;;8257731;28;20252;-73
2023/04/09 08:46:47;;;;;;;33.25;18.17;;;;;12.80;97041.00;;;;8256933;28;20231;-72
2023/04/09 08:50:54;;;;;;;31.25;18.35;;;;;12.90;97043.00;;;;8258409;28;20207;-73
2023/04/09 08:55:01;;;;;;;32.88;16.77;;;;;13.00;97058.00;;;;8255653;28;20229;-71
2023/04/09 08:59:05;;;;;;;31.77;17.50;;;;;13.60;97051.00;;;;8256519;28;20203;-73
2023/04/09 09:03:09;;;;;;;32.20;16.55;;;;;13.90;97061.00;;;;8239350;28;20694;-73
2023/04/09 09:07:14;;;;;;;28.40;16.90;;;;;13.30;97060.00;;;;8251484;28;20293;-71
2023/04/09 09:11:25;;;;;;;30.38;17.58;;;;;12.30;97067.00;;;;8258074;28;20205;-71
2023/04/09 09:15:29;;;;;;;34.35;18.80;;;;;11.70;97056.00;;;;8255142;28;20195;-69
2023/04/09 09:19:34;;;;;;;31.73;17.20;;;;;11.30;97066.00;;;;8252888;28;20214;-69
2023/04/09 09:23:38;;;;;;;33.22;18.55;;;;;11.30;97060.00;;;;8250643;28;21019;-68
2023/04/09 09:27:42;;;;;;;34.97;19.13;;;;;11.30;97057.00;;;;8256237;28;20250;-72
2023/04/09 09:31:49;;;;;;;31.95;16.00;;;;;11.10;97057.00;;;;8254112;28;20228;-70
2023/04/09 09:35:56;;;;;;;31.00;16.50;;;;;11.00;97057.00;;;;8257822;28;20209;-71
2023/04/09 09:40:04;;;;;;;29.48;16.88;;;;;10.90;97068.00;;;;8255411;28;20196;-71
2023/04/09 09:44:08;;;;;;;32.55;17.90;;;;;11.00;97058.00;;;;8250837;28;20277;-70
2023/04/09 09:48:11;;;;;;;36.75;18.88;;;;;11.10;97064.00;;;;8253864;28;20230;-71
2023/04/09 09:52:15;;;;;;;35.63;17.73;;;;;11.20;97053.00;;;;8251343;28;20607;-74
2023/04/09 09:56:31;;;;;;;34.33;18.30;;;;;11.40;97060.00;;;;8255140;28;20241;-69
2023/04/09 10:00:37;;;;;;;32.65;19.02;;;;;11.70;97048.00;;;;8250522;28;20306;-72
2023/04/09 10:04:40;;;;;;;27.58;15.35;;;;;12.00;97050.00;;;;8252275;28;20237;-71
2023/04/09 10:08:48;;;;;;;29.83;16.33;;;;;12.10;97051.00;;;;8246972;28;20231;-71
2023/04/09 10:12:53;;;;;;;26.95;15.13;;;;;12.40;97053.00;;;;8252684;28;20205;-69
2023/04/09 10:16:59;;;;;;;28.48;15.82;;;;;12.30;97054.00;;;;8248123;28;20206;-68
2023/04/09 10:21:09;;;;;;;33.50;18.08;;;;;12.10;97056.00;;;;8249764;28;20801;-74
2023/04/09 10:25:12;;;;;;;27.83;15.68;;;;;12.20;97058.00;;;;8251265;28;20238;-70
2023/04/09 10:29:17;;;;;;;30.95;15.90;;;;;12.40;97054.00;;;;8251356;28;20695;-75
2023/04/09 10:33:26;;;;;;;25.83;13.98;;;;;12.30;97053.00;;;;8251610;28;20272;-70
2023/04/09 10:37:31;;;;;;;24.52;15.00;;;;;12.40;97056.00;;;;8256697;28;20206;-72
2023/04/09 10:41:36;;;;;;;26.35;13.93;;;;;12.40;97053.00;;;;8250417;28;20601;-72
2023/04/09 10:45:41;;;;;;;22.48;12.90;;;;;12.60;97054.00;;;;8251252;28;20203;-73
2023/04/09 10:49:52;;;;;;;22.63;12.85;;;;;12.70;97050.00;;;;8252855;28;20231;-78
2023/04/09 10:53:57;;;;;;;23.42;13.57;;;;;12.90;97046.00;;;;8251245;28;20383;-71
2023/04/09 10:58:11;;;;;;;22.17;13.32;;;;;13.20;97032.00;;;;8253928;28;20685;-68
2023/04/09 11:03:06;;;;;;;22.08;12.93;;;;;13.90;97035.00;;;;8255221;28;20645;-73
2023/04/09 11:07:15;;;;;;;21.77;12.98;;;;;14.20;97032.00;;;;8239377;28;20202;-69
2023/04/09 11:11:25;;;;;;;22.30;13.63;;;;;14.00;97030.00;;;;8255170;28;20208;-68
2023/04/09 11:15:31;;;;;;;21.05;13.32;;;;;14.20;97037.00;;;;8250576;28;20232;-71
2023/04/09 11:19:34;;;;;;;23.70;13.45;;;;;14.60;97032.00;;;;8254347;28;20209;-72
2023/04/09 11:23:38;;;;;;;23.60;13.95;;;;;14.50;97035.00;;;;8251474;28;20281;-71
2023/04/09 11:27:46;;;;;;;28.27;13.95;;;;;14.10;97034.00;;;;8251756;28;20260;-70
2023/04/09 11:31:49;;;;;;;26.92;14.57;;;;;13.90;97030.00;;;;8240706;28;20198;-72
2023/04/09 11:35:52;;;;;;;22.92;13.30;;;;;13.70;97029.00;;;;8244643;28;20236;-72
2023/04/09 11:39:59;;;;;;;21.02;13.27;;;;;13.60;97020.00;;;;8251736;28;20194;-72
2023/04/09 11:44:06;;;;;;;25.27;13.95;;;;;14.20;97020.00;;;;8247222;28;20205;-74
2023/04/09 11:48:10;;;;;;;20.77;13.30;;;;;14.80;97025.00;;;;8246909;28;20627;-72
2023/04/09 11:52:17;;;;;;;21.35;12.75;;;;;14.90;97023.00;;;;8254764;28;20947;-72
2023/04/09 11:56:21;;;;;;;20.95;13.18;;;;;14.90;97020.00;;;;8252527;28;20234;-73
2023/04/09 12:00:25;;;;;;;19.15;12.48;;;;;14.50;97017.00;;;;8252615;28;20208;-72
2023/04/09 12:04:27;;;;;;;20.50;13.02;;;;;14.20;97012.00;;;;8249768;28;20229;-72
2023/04/09 12:08:34;;;;;;;20.52;12.82;;;;;14.10;97010.00;;;;8249389;28;20226;-73
2023/04/09 12:12:46;;;;;;;19.42;11.57;;;;;14.10;97009.00;;;;8254525;28;20195;-75
2023/04/09 12:16:52;;;;;;;20.20;12.18;;;;;13.90;97004.00;;;;8251961;28;20267;-73
2023/04/09 12:20:59;;;;;;;20.02;12.57;;;;;14.10;97002.00;;;;8252992;28;20667;-74
2023/04/09 12:25:06;;;;;;;20.35;12.25;;;;;14.20;97005.00;;;;8255267;28;20230;-75
2023/04/09 12:29:12;;;;;;;18.13;11.57;;;;;14.20;97010.00;;;;8258324;28;20225;-70
2023/04/09 12:33:18;;;;;;;19.00;11.57;;;;;14.00;97004.00;;;;8265081;28;20516;-70
2023/04/09 12:37:21;;;;;;;19.15;11.38;;;;;14.00;97001.00;;;;8260992;28;20229;-70
2023/04/09 12:41:35;;;;;;;18.48;11.02;;;;;14.10;96997.00;;;;8255250;28;20556;-71
2023/04/09 12:45:40;;;;;;;19.35;11.48;;;;;14.30;97004.00;;;;8256222;28;20199;-72
2023/04/09 12:49:45;;;;;;;18.85;12.32;;;;;14.70;97004.00;;;;8255233;28;20241;-71
2023/04/09 12:53:48;;;;;;;16.00;10.82;;;;;14.90;96987.00;;;;8260008;28;20210;-70
2023/04/09 12:57:53;;;;;;;16.67;10.80;;;;;15.30;96982.00;;;;8252117;28;20206;-72
2023/04/09 13:02:00;;;;;;;16.95;11.07;;;;;15.90;96979.00;;;;8251918;28;20273;-71
2023/04/09 13:06:04;;;;;;;15.68;10.52;;;;;16.10;96978.00;;;;8247128;28;20192;-71
2023/04/09 13:10:18;;;;;;;16.90;10.40;;;;;16.30;96978.00;;;;8249565;28;20227;-72
2023/04/09 13:14:21;;;;;;;15.55;10.35;;;;;16.50;96980.00;;;;8242957;28;20206;-72
2023/04/09 13:18:25;;;;;;;16.80;9.32;;;;;16.40;96981.00;;;;8252303;28;20653;-71
2023/04/09 13:22:31;;;;;;;14.73;8.73;;;;;15.80;96969.00;;;;8253226;28;20288;-72
2023/04/09 13:26:34;;;;;;;13.77;8.88;;;;;15.30;96973.00;;;;8253590;28;20210;-71
2023/04/09 13:30:37;;;;;;;14.05;8.93;;;;;15.10;96969.00;;;;8252300;28;20746;-73
2023/04/09 13:34:42;;;;;;;13.18;9.25;;;;;15.20;96969.00;;;;8250509;28;20290;-72
2023/04/09 13:38:45;;;;;;;14.10;9.95;;;;;15.70;96958.00;;;;8245220;28;20729;-72
2023/04/09 13:42:48;;;;;;;14.88;9.90;;;;;16.30;96955.00;;;;8256742;28;20277;-73
2023/04/09 13:46:53;;;;;;;14.70;9.80;;;;;17.00;96952.00;;;;8252808;28;20265;-73
2023/04/09 13:50:58;;;;;;;17.15;10.70;;;;;16.70;96957.00;;;;8255383;28;20214;-71
2023/04/09 13:55:02;;;;;;;16.17;9.82;;;;;16.60;96957.00;;;;8238683;28;20206;-73
2023/04/09 13:59:05;;;;;;;16.05;9.68;;;;;16.20;96971.00;;;;8230500;28;20199;-72
2023/04/09 14:03:09;;;;;;;18.20;11.45;;;;;14.70;96977.00;;;;8250115;28;20227;-73
2023/04/09 14:07:14;;;;;;;15.57;10.45;;;;;13.20;96976.00;;;;8250255;28;20246;-73
2023/04/09 14:11:18;;;;;;;18.98;11.02;;;;;12.20;96980.00;;;;8252522;28;20236;-73
2023/04/09 14:15:24;;;;;;;22.85;11.65;;;;;11.70;96989.00;;;;8253421;28;20200;-72
2023/04/09 14:19:29;;;;;;;10.43;7.25;;;;;11.50;96960.00;;;;8244757;28;20207;-69
2023/04/09 14:23:34;;;;;;;10.27;7.18;;;;;11.50;96958.00;;;;8251253;28;20206;-74
2023/04/09 14:27:37;;;;;;;7.65;6.10;;;;;11.60;96961.00;;;;8249977;28;20253;-71
2023/04/09 14:31:41;;;;;;;7.72;5.97;;;;;11.80;96959.00;;;;8252194;28;20232;-71
2023/04/09 14:35:44;;;;;;;9.10;6.60;;;;;12.00;96954.00;;;;8246222;28;20204;-74
2023/04/09 14:39:48;;;;;;;13.02;8.07;;;;;12.20;96951.00;;;;8249017;28;20265;-74
2023/04/09 14:43:57;;;;;;;12.02;7.88;;;;;12.50;96945.00;;;;8253426;28;20203;-74
2023/04/09 14:48:03;;;;;;;15.48;9.68;;;;;13.70;96958.00;;;;8253233;28;20284;-77
2023/04/09 14:52:07;;;;;;;17.35;11.68;;;;;14.30;96958.00;;;;8251444;28;20229;-80
2023/04/09 14:56:17;;;;;;;17.30;10.85;;;;;14.30;96961.00;;;;8243078;28;20206;-74
2023/04/09 15:00:21;;;;;;;17.25;11.10;;;;;13.80;96967.00;;;;8251259;28;20237;-72
2023/04/09 15:04:28;;;;;;;13.88;9.05;;;;;13.30;96973.00;;;;8241317;28;20234;-74
2023/04/09 15:08:31;;;;;;;8.77;6.85;;;;;13.00;96971.00;;;;8244518;28;20201;-73
2023/04/09 15:12:39;;;;;;;8.25;6.00;;;;;12.80;96968.00;;;;8249208;28;20212;-72
2023/04/09 15:16:45;;;;;;;7.90;5.82;;;;;12.60;96962.00;;;;8244017;28;20202;-74
2023/04/09 15:20:49;;;;;;;14.23;8.57;;;;;12.70;96956.00;;;;8247240;28;20604;-77
2023/04/09 15:24:53;;;;;;;13.20;9.40;;;;;12.70;96950.00;;;;8253909;28;20202;-74
2023/04/09 15:29:02;;;;;;;14.38;9.73;;;;;12.80;96957.00;;;;8251552;28;20197;-74
2023/04/09 15:33:06;;;;;;;15.82;9.75;;;;;12.90;96962.00;;;;8257774;28;20208;-71
2023/04/09 15:37:09;;;;;;;16.88;9.50;;;;;12.90;96961.00;;;;8244275;28;20217;-71
2023/04/09 15:41:16;;;;;;;14.38;9.93;;;;;12.80;96962.00;;;;8247752;28;20313;-71
2023/04/09 15:45:21;;;;;;;15.07;9.85;;;;;12.60;96963.00;;;;8254244;28;20229;-72
2023/04/09 15:49:28;;;;;;;14.27;9.32;;;;;12.70;96958.00;;;;8257145;28;20216;-72
2023/04/09 15:53:32;;;;;;;14.30;9.73;;;;;13.20;96962.00;;;;8268780;28;20773;-72
2023/04/09 15:57:38;;;;;;;11.70;8.27;;;;;13.60;96959.00;;;;8260356;28;20206;-72
2023/04/09 16:01:52;;;;;;;13.57;8.48;;;;;14.20;96961.00;;;;8258933;28;20254;-73
2023/04/09 16:05:55;;;;;;;10.20;7.65;;;;;14.70;96951.00;;;;8262226;28;20198;-78
2023/04/09 16:10:03;;;;;;;10.15;7.82;;;;;15.10;96947.00;;;;8254428;28;20959;-78
2023/04/09 16:14:09;;;;;;;10.63;7.03;;;;;15.60;96938.00;;;;8264583;28;20230;-77
2023/04/09 16:18:18;;;;;;;9.82;7.03;;;;;16.00;96940.00;;;;8264388;28;20238;-74
2023/04/09 16:22:22;;;;;;;9.48;7.32;;;;;16.30;96943.00;;;;8263835;28;20281;-76
2023/04/09 16:26:26;;;;;;;8.75;7.03;;;;;16.40;96941.00;;;;8265375;28;20203;-73
2023/04/09 16:30:31;;;;;;;9.65;6.78;;;;;16.70;96946.00;;;;8264052;28;20222;-76
2023/04/09 16:34:36;;;;;;;7.15;5.63;;;;;17.00;96937.00;;;;8261784;28;20635;-77
2023/04/09 16:38:42;;;;;;;7.28;5.80;;;;;17.10;96948.00;;;;8254359;28;20663;-79
2023/04/09 16:42:45;;;;;;;8.15;6.35;;;;;17.20;96963.00;;;;8246754;28;20230;-77
2023/04/09 16:46:50;;;;;;;9.15;6.20;;;;;17.00;96950.00;;;;8248304;28;20234;-75
2023/04/09 16:50:57;;;;;;;6.38;5.30;;;;;16.90;96951.00;;;;8245434;28;20262;-76
2023/04/09 16:55:00;;;;;;;7.35;5.63;;;;;16.70;96953.00;;;;8245671;28;20222;-78
2023/04/09 16:59:06;;;;;;;6.22;5.63;;;;;16.10;96947.00;;;;8247186;28;20241;-78
2023/04/09 17:03:09;;;;;;;7.75;6.10;;;;;15.30;96949.00;;;;8245700;28;20305;-71
2023/04/09 17:07:14;;;;;;;6.30;5.43;;;;;14.60;96949.00;;;;8254603;28;20203;-74
2023/04/09 17:11:17;;;;;;;6.10;5.22;;;;;14.10;96959.00;;;;8254905;28;20230;-74
2023/04/09 17:15:21;;;;;;;6.75;5.32;;;;;13.60;96952.00;;;;8240689;28;20195;-74
2023/04/09 17:19:26;;;;;;;7.68;5.68;;;;;13.20;96954.00;;;;8247045;28;20210;-71
2023/04/09 17:23:30;;;;;;;9.55;6.07;;;;;12.90;96956.00;;;;8245506;28;20210;-72
2023/04/09 17:27:33;;;;;;;7.93;5.80;;;;;12.60;96957.00;;;;8242904;28;20673;-73
2023/04/09 17:31:43;;;;;;;12.93;7.78;;;;;12.30;96962.00;;;;8239396;28;20245;-73
2023/04/09 17:35:49;;;;;;;7.60;6.18;;;;;12.10;96956.00;;;;8273466;28;20212;-74
2023/04/09 17:39:55;;;;;;;8.50;6.38;;;;;12.00;96970.00;;;;8286025;28;20213;-73
2023/04/09 17:43:59;;;;;;;9.88;6.78;;;;;11.80;96967.00;;;;8272091;28;20216;-74
2023/04/09 17:48:05;;;;;;;9.52;6.50;;;;;11.60;96975.00;;;;8284156;28;20211;-75
2023/04/09 17:52:09;;;;;;;10.02;6.82;;;;;11.40;96978.00;;;;8275309;28;20932;-71
2023/04/09 17:56:16;;;;;;;10.00;6.75;;;;;11.20;96969.00;;;;8286014;28;20202;-75
2023/04/09 18:00:23;;;;;;;49.35;20.25;;;;;11.10;96978.00;;;;8283633;28;20202;-72
2023/04/09 18:04:26;;;;;;;9.32;6.75;;;;;10.90;96985.00;;;;8277545;28;20631;-71
2023/04/09 18:08:32;;;;;;;10.95;7.50;;;;;10.70;96983.00;;;;8280158;28;20297;-72
2023/04/09 18:12:38;;;;;;;14.10;7.78;;;;;10.40;96987.00;;;;8284919;28;20505;-72
2023/04/09 18:16:41;;;;;;;12.10;7.25;;;;;10.20;96983.00;;;;8285929;28;20233;-72
2023/04/09 18:20:45;;;;;;;17.15;9.45;;;;;10.10;96996.00;;;;8278601;28;20261;-75
2023/04/09 18:24:51;;;;;;;16.40;8.93;;;;;10.00;96992.00;;;;8280205;28;20229;-73
2023/04/09 18:28:59;;;;;;;15.15;8.70;;;;;10.00;96989.00;;;;8282530;28;20202;-76
2023/04/09 18:33:06;;;;;;;15.55;9.35;;;;;10.00;97002.00;;;;8283506;28;20235;-73
2023/04/09 18:37:14;;;;;;;17.80;10.15;;;;;9.90;97006.00;;;;8287245;28;20209;-72
2023/04/09 18:41:22;;;;;;;20.63;11.52;;;;;9.90;97011.00;;;;8285313;28;20201;-74
2023/04/09 18:45:26;;;;;;;20.75;12.18;;;;;9.90;97017.00;;;;8284044;28;20218;-74
2023/04/09 18:49:29;;;;;;;23.33;13.02;;;;;9.70;97025.00;;;;8284094;28;20237;-73
2023/04/09 18:53:32;;;;;;;21.33;12.33;;;;;9.50;97027.00;;;;8282421;28;20279;-74
2023/04/09 18:57:35;;;;;;;24.83;13.13;;;;;9.20;97027.00;;;;8284152;28;20206;-73
2023/04/09 19:01:42;;;;;;;24.53;13.40;;;;;8.90;97026.00;;;;8281906;28;20237;-72
2023/04/09 19:05:45;;;;;;;24.97;13.70;;;;;8.70;97024.00;;;;8282612;28;20293;-72
2023/04/09 19:09:48;;;;;;;24.63;13.60;;;;;8.40;97023.00;;;;8273832;28;20911;-75
2023/04/09 19:13:52;;;;;;;24.90;13.63;;;;;8.10;97036.00;;;;8288412;28;20595;-73
2023/04/09 19:17:57;;;;;;;22.70;13.30;;;;;7.80;97028.00;;;;8287185;28;20193;-72
2023/04/09 19:22:01;;;;;;;25.53;13.90;;;;;7.50;97030.00;;;;8288438;28;20643;-74
2023/04/09 19:26:04;;;;;;;29.73;14.50;;;;;7.20;97038.00;;;;8284573;28;20213;-77
2023/04/09 19:30:13;;;;;;;27.27;14.87;;;;;7.00;97032.00;;;;8285404;28;20961;-74
2023/04/09 19:34:17;;;;;;;26.13;14.00;;;;;6.80;97043.00;;;;8287660;28;20202;-72
2023/04/09 19:38:24;;;;;;;28.20;14.03;;;;;6.60;97040.00;;;;8286006;28;20546;-74
2023/04/09 19:42:28;;;;;;;29.67;14.20;;;;;6.40;97042.00;;;;8295372;28;20204;-74
2023/04/09 19:46:32;;;;;;;26.57;14.10;;;;;6.20;97045.00;;;;8294433;28;20234;-72
2023/04/09 19:50:41;;;;;;;28.03;14.87;;;;;6.20;97049.00;;;;8291664;28;20201;-74
2023/04/09 19:54:45;;;;;;;30.07;15.70;;;;;6.20;97065.00;;;;8282932;28;20849;-72
2023/04/09 19:58:48;;;;;;;32.33;15.50;;;;;6.20;97052.00;;;;8273564;28;20544;-72
2023/04/09 20:02:51;;;;;;;31.83;15.20;;;;;6.30;97052.00;;;;8277724;28;20261;-74
2023/04/09 20:06:57;;;;;;;31.20;14.87;;;;;6.30;97047.00;;;;8285657;28;20760;-72
2023/04/09 20:11:00;;;;;;;28.73;14.20;;;;;6.30;97051.00;;;;8290568;28;20233;-72